Disclaimer

Please do not use the information listed here in-flight or in-navigation, as they are not provided to us by the airports but are provided by volunteers, so they might be outdated.

Search


Regions


Airport information page

Radio informations:
VILLAHERMOSA TWR - 118.7 MHz
VILLAHERMOSA APP - 120.7 MHz

Airport informations:
Latitude: 17° 59' 49.20" N
Longitude: 092° 49' 02.50" W
Elevation: 46 feet - 14 meters
Operating hours: Remarks
Operating agency: Civil government, landing fees and diplomatic clearance may be required
Timezone: UTC-6(-5DT) - First Sunday in April to the last Saturday in October
Fuel: Jet A1, without icing nhibitor.

100/130 octane gasoline, leaded, MIL-L-5572F (GREEN)

Runway information:
08/26 - 7218 x 148 feet< - >2200 x 45 meters

Recent METARs:
MMVA 131450Z 00000KT 5SM BKN017 BKN070 25/22 A3001 RMK SLP160 52021 921 8/460 HZY
MMVA 131540Z 29007KT 7SM SCT015 BKN070 27/23 A3001 RMK 8/150 HZY
MMVA 131540Z 29007KT 7SM SCT015 BKN070 27/23 A3001 RMK 8/150 HZY

Airport on the map: